sensor_id;sensor_type;location;lat;lon;timestamp;P1;durP1;ratioP1;P2;durP2;ratioP2
11671;SDS011;5892;43.412;24.612;2022-09-14T00:01:15;3.07;;;2.63;;
11671;SDS011;5892;43.412;24.612;2022-09-14T00:03:44;3.13;;;2.53;;
11671;SDS011;5892;43.412;24.612;2022-09-14T00:06:17;3.10;;;2.50;;
11671;SDS011;5892;43.412;24.612;2022-09-14T00:08:49;2.97;;;2.60;;
11671;SDS011;5892;43.412;24.612;2022-09-14T00:11:19;6.87;;;2.90;;
11671;SDS011;5892;43.412;24.612;2022-09-14T00:13:55;2.80;;;2.60;;
11671;SDS011;5892;43.412;24.612;2022-09-14T00:16:25;5.13;;;2.80;;
11671;SDS011;5892;43.412;24.612;2022-09-14T00:18:55;4.37;;;2.73;;
11671;SDS011;5892;43.412;24.612;2022-09-14T00:21:27;3.27;;;2.80;;
11671;SDS011;5892;43.412;24.612;2022-09-14T00:24:30;3.83;;;2.80;;
11671;SDS011;5892;43.412;24.612;2022-09-14T00:26:59;4.87;;;2.80;;
11671;SDS011;5892;43.412;24.612;2022-09-14T00:29:27;4.83;;;2.67;;
11671;SDS011;5892;43.412;24.612;2022-09-14T00:31:57;2.83;;;2.57;;
11671;SDS011;5892;43.412;24.612;2022-09-14T00:34:25;3.40;;;3.00;;
11671;SDS011;5892;43.412;24.612;2022-09-14T00:36:54;4.40;;;2.80;;
11671;SDS011;5892;43.412;24.612;2022-09-14T00:39:23;4.07;;;2.97;;
11671;SDS011;5892;43.412;24.612;2022-09-14T00:41:52;4.50;;;3.00;;
11671;SDS011;5892;43.412;24.612;2022-09-14T00:47:31;4.83;;;2.70;;
11671;SDS011;5892;43.412;24.612;2022-09-14T00:50:01;5.93;;;3.00;;
11671;SDS011;5892;43.412;24.612;2022-09-14T00:52:30;5.53;;;2.80;;
11671;SDS011;5892;43.412;24.612;2022-09-14T00:55:02;8.40;;;2.90;;
11671;SDS011;5892;43.412;24.612;2022-09-14T00:57:33;4.90;;;2.67;;
11671;SDS011;5892;43.412;24.612;2022-09-14T01:00:05;4.67;;;2.90;;
11671;SDS011;5892;43.412;24.612;2022-09-14T01:02:38;5.37;;;2.80;;
11671;SDS011;5892;43.412;24.612;2022-09-14T01:05:07;5.00;;;3.10;;
11671;SDS011;5892;43.412;24.612;2022-09-14T01:07:44;3.97;;;2.83;;
11671;SDS011;5892;43.412;24.612;2022-09-14T01:10:57;4.17;;;2.63;;
11671;SDS011;5892;43.412;24.612;2022-09-14T01:13:40;4.07;;;2.90;;
11671;SDS011;5892;43.412;24.612;2022-09-14T01:16:16;7.53;;;3.10;;
11671;SDS011;5892;43.412;24.612;2022-09-14T01:18:53;7.50;;;3.00;;
11671;SDS011;5892;43.412;24.612;2022-09-14T01:21:25;4.43;;;3.00;;
11671;SDS011;5892;43.412;24.612;2022-09-14T01:23:59;4.10;;;2.67;;
11671;SDS011;5892;43.412;24.612;2022-09-14T01:26:52;5.87;;;3.13;;
11671;SDS011;5892;43.412;24.612;2022-09-14T01:29:48;4.63;;;2.90;;
11671;SDS011;5892;43.412;24.612;2022-09-14T01:32:21;3.87;;;2.90;;
11671;SDS011;5892;43.412;24.612;2022-09-14T01:34:54;4.13;;;3.00;;
11671;SDS011;5892;43.412;24.612;2022-09-14T01:37:30;4.47;;;2.80;;
11671;SDS011;5892;43.412;24.612;2022-09-14T01:40:06;4.90;;;3.07;;
11671;SDS011;5892;43.412;24.612;2022-09-14T01:42:40;3.73;;;3.20;;
11671;SDS011;5892;43.412;24.612;2022-09-14T01:45:16;6.10;;;3.20;;
11671;SDS011;5892;43.412;24.612;2022-09-14T01:48:01;3.43;;;2.80;;
11671;SDS011;5892;43.412;24.612;2022-09-14T01:50:34;3.30;;;2.70;;
11671;SDS011;5892;43.412;24.612;2022-09-14T01:53:07;6.77;;;3.23;;
11671;SDS011;5892;43.412;24.612;2022-09-14T01:55:39;3.70;;;2.90;;
11671;SDS011;5892;43.412;24.612;2022-09-14T01:58:14;4.77;;;2.90;;
11671;SDS011;5892;43.412;24.612;2022-09-14T02:00:51;3.10;;;2.50;;
11671;SDS011;5892;43.412;24.612;2022-09-14T02:03:23;4.43;;;2.97;;
11671;SDS011;5892;43.412;24.612;2022-09-14T02:05:55;5.10;;;3.00;;
11671;SDS011;5892;43.412;24.612;2022-09-14T02:08:26;3.70;;;3.00;;
11671;SDS011;5892;43.412;24.612;2022-09-14T02:10:54;4.40;;;2.87;;
11671;SDS011;5892;43.412;24.612;2022-09-14T02:13:23;3.60;;;2.80;;
11671;SDS011;5892;43.412;24.612;2022-09-14T02:15:55;5.80;;;3.00;;
11671;SDS011;5892;43.412;24.612;2022-09-14T02:18:25;4.17;;;3.03;;
11671;SDS011;5892;43.412;24.612;2022-09-14T02:20:53;3.53;;;3.23;;
11671;SDS011;5892;43.412;24.612;2022-09-14T02:23:27;5.87;;;3.10;;
11671;SDS011;5892;43.412;24.612;2022-09-14T02:25:57;5.37;;;3.17;;
11671;SDS011;5892;43.412;24.612;2022-09-14T02:28:32;4.37;;;2.73;;
11671;SDS011;5892;43.412;24.612;2022-09-14T02:31:09;4.77;;;3.00;;
11671;SDS011;5892;43.412;24.612;2022-09-14T02:33:44;5.27;;;3.00;;
11671;SDS011;5892;43.412;24.612;2022-09-14T02:36:20;4.33;;;3.03;;
11671;SDS011;5892;43.412;24.612;2022-09-14T02:38:55;3.90;;;2.73;;
11671;SDS011;5892;43.412;24.612;2022-09-14T02:41:31;7.97;;;3.17;;
11671;SDS011;5892;43.412;24.612;2022-09-14T02:44:08;3.50;;;3.10;;
11671;SDS011;5892;43.412;24.612;2022-09-14T02:46:50;3.83;;;3.00;;
11671;SDS011;5892;43.412;24.612;2022-09-14T02:49:28;5.70;;;3.10;;
11671;SDS011;5892;43.412;24.612;2022-09-14T02:52:05;4.57;;;3.00;;
11671;SDS011;5892;43.412;24.612;2022-09-14T02:54:42;3.33;;;2.80;;
11671;SDS011;5892;43.412;24.612;2022-09-14T02:57:13;3.10;;;2.80;;
11671;SDS011;5892;43.412;24.612;2022-09-14T02:59:41;4.63;;;3.40;;
11671;SDS011;5892;43.412;24.612;2022-09-14T03:02:10;4.07;;;2.80;;
11671;SDS011;5892;43.412;24.612;2022-09-14T03:04:37;5.23;;;3.00;;
11671;SDS011;5892;43.412;24.612;2022-09-14T03:07:06;5.17;;;3.30;;
11671;SDS011;5892;43.412;24.612;2022-09-14T03:09:33;4.03;;;3.63;;
11671;SDS011;5892;43.412;24.612;2022-09-14T03:12:01;7.23;;;3.50;;
11671;SDS011;5892;43.412;24.612;2022-09-14T03:14:29;6.67;;;3.53;;
11671;SDS011;5892;43.412;24.612;2022-09-14T03:16:59;4.60;;;3.27;;
11671;SDS011;5892;43.412;24.612;2022-09-14T03:19:32;4.70;;;3.33;;
11671;SDS011;5892;43.412;24.612;2022-09-14T03:22:00;5.73;;;3.70;;
11671;SDS011;5892;43.412;24.612;2022-09-14T03:24:30;5.47;;;3.50;;
11671;SDS011;5892;43.412;24.612;2022-09-14T03:27:03;7.30;;;3.80;;
11671;SDS011;5892;43.412;24.612;2022-09-14T03:29:30;5.97;;;3.37;;
11671;SDS011;5892;43.412;24.612;2022-09-14T03:31:57;4.00;;;3.60;;
11671;SDS011;5892;43.412;24.612;2022-09-14T03:34:36;5.63;;;3.67;;
11671;SDS011;5892;43.412;24.612;2022-09-14T03:37:10;4.23;;;3.20;;
11671;SDS011;5892;43.412;24.612;2022-09-14T03:39:39;5.57;;;3.47;;
11671;SDS011;5892;43.412;24.612;2022-09-14T03:42:08;7.07;;;3.20;;
11671;SDS011;5892;43.412;24.612;2022-09-14T03:44:38;6.90;;;3.60;;
11671;SDS011;5892;43.412;24.612;2022-09-14T03:47:07;8.93;;;3.50;;
11671;SDS011;5892;43.412;24.612;2022-09-14T03:49:37;6.10;;;3.60;;
11671;SDS011;5892;43.412;24.612;2022-09-14T03:52:04;6.70;;;3.40;;
11671;SDS011;5892;43.412;24.612;2022-09-14T03:54:33;7.97;;;3.40;;
11671;SDS011;5892;43.412;24.612;2022-09-14T03:57:03;6.83;;;3.37;;
11671;SDS011;5892;43.412;24.612;2022-09-14T03:59:31;4.53;;;3.33;;
11671;SDS011;5892;43.412;24.612;2022-09-14T04:02:02;9.13;;;3.70;;
11671;SDS011;5892;43.412;24.612;2022-09-14T04:04:29;3.90;;;3.33;;
11671;SDS011;5892;43.412;24.612;2022-09-14T04:07:02;7.40;;;3.67;;
11671;SDS011;5892;43.412;24.612;2022-09-14T04:09:29;7.10;;;3.43;;
11671;SDS011;5892;43.412;24.612;2022-09-14T04:12:03;8.87;;;3.90;;
11671;SDS011;5892;43.412;24.612;2022-09-14T04:14:30;4.10;;;3.40;;
11671;SDS011;5892;43.412;24.612;2022-09-14T04:16:58;6.57;;;3.50;;
11671;SDS011;5892;43.412;24.612;2022-09-14T04:19:27;9.20;;;3.53;;
11671;SDS011;5892;43.412;24.612;2022-09-14T04:21:57;5.50;;;3.80;;
11671;SDS011;5892;43.412;24.612;2022-09-14T04:24:26;8.93;;;3.67;;
11671;SDS011;5892;43.412;24.612;2022-09-14T04:26:53;9.50;;;3.87;;
11671;SDS011;5892;43.412;24.612;2022-09-14T04:29:21;8.93;;;3.80;;
11671;SDS011;5892;43.412;24.612;2022-09-14T04:31:49;9.07;;;3.80;;
11671;SDS011;5892;43.412;24.612;2022-09-14T04:34:22;11.23;;;4.03;;
11671;SDS011;5892;43.412;24.612;2022-09-14T04:37:03;11.60;;;3.73;;
11671;SDS011;5892;43.412;24.612;2022-09-14T04:42:17;9.27;;;3.33;;
11671;SDS011;5892;43.412;24.612;2022-09-14T04:44:48;9.37;;;3.50;;
11671;SDS011;5892;43.412;24.612;2022-09-14T04:47:16;10.13;;;3.73;;
11671;SDS011;5892;43.412;24.612;2022-09-14T04:49:48;12.63;;;3.83;;
11671;SDS011;5892;43.412;24.612;2022-09-14T04:52:18;8.67;;;3.67;;
11671;SDS011;5892;43.412;24.612;2022-09-14T04:54:49;9.30;;;4.00;;
11671;SDS011;5892;43.412;24.612;2022-09-14T04:57:18;11.10;;;4.43;;
11671;SDS011;5892;43.412;24.612;2022-09-14T04:59:49;12.97;;;4.60;;
11671;SDS011;5892;43.412;24.612;2022-09-14T05:02:18;17.73;;;5.10;;
11671;SDS011;5892;43.412;24.612;2022-09-14T05:04:55;15.17;;;5.43;;
11671;SDS011;5892;43.412;24.612;2022-09-14T05:07:48;17.57;;;5.47;;
11671;SDS011;5892;43.412;24.612;2022-09-14T05:10:39;8.67;;;4.47;;
11671;SDS011;5892;43.412;24.612;2022-09-14T05:13:09;13.23;;;4.40;;
11671;SDS011;5892;43.412;24.612;2022-09-14T05:15:41;16.43;;;5.50;;
11671;SDS011;5892;43.412;24.612;2022-09-14T05:18:10;14.53;;;6.23;;
11671;SDS011;5892;43.412;24.612;2022-09-14T05:20:40;13.33;;;5.83;;
11671;SDS011;5892;43.412;24.612;2022-09-14T05:23:10;18.77;;;6.30;;
11671;SDS011;5892;43.412;24.612;2022-09-14T05:25:40;11.77;;;5.00;;
11671;SDS011;5892;43.412;24.612;2022-09-14T05:28:07;16.67;;;6.43;;
11671;SDS011;5892;43.412;24.612;2022-09-14T05:30:38;11.57;;;5.80;;
11671;SDS011;5892;43.412;24.612;2022-09-14T05:33:07;13.60;;;5.60;;
11671;SDS011;5892;43.412;24.612;2022-09-14T05:35:35;19.70;;;7.90;;
11671;SDS011;5892;43.412;24.612;2022-09-14T05:38:04;13.83;;;6.30;;
11671;SDS011;5892;43.412;24.612;2022-09-14T05:40:31;13.00;;;6.17;;
11671;SDS011;5892;43.412;24.612;2022-09-14T05:43:03;15.17;;;5.90;;
11671;SDS011;5892;43.412;24.612;2022-09-14T05:45:32;16.43;;;5.70;;
11671;SDS011;5892;43.412;24.612;2022-09-14T05:48:03;13.77;;;5.70;;
11671;SDS011;5892;43.412;24.612;2022-09-14T05:50:30;15.50;;;4.90;;
11671;SDS011;5892;43.412;24.612;2022-09-14T05:52:58;12.43;;;4.93;;
11671;SDS011;5892;43.412;24.612;2022-09-14T05:55:30;13.83;;;4.87;;
11671;SDS011;5892;43.412;24.612;2022-09-14T05:57:57;11.83;;;4.60;;
11671;SDS011;5892;43.412;24.612;2022-09-14T06:00:27;7.17;;;4.33;;
11671;SDS011;5892;43.412;24.612;2022-09-14T06:02:54;6.20;;;3.83;;
11671;SDS011;5892;43.412;24.612;2022-09-14T06:05:27;9.27;;;3.77;;
11671;SDS011;5892;43.412;24.612;2022-09-14T06:07:55;9.17;;;3.90;;
11671;SDS011;5892;43.412;24.612;2022-09-14T06:10:26;4.93;;;3.70;;
11671;SDS011;5892;43.412;24.612;2022-09-14T06:12:55;13.43;;;4.20;;
11671;SDS011;5892;43.412;24.612;2022-09-14T06:15:28;9.90;;;3.77;;
11671;SDS011;5892;43.412;24.612;2022-09-14T06:17:56;12.93;;;4.13;;
11671;SDS011;5892;43.412;24.612;2022-09-14T06:20:24;13.10;;;4.50;;
11671;SDS011;5892;43.412;24.612;2022-09-14T06:22:59;9.27;;;5.07;;
11671;SDS011;5892;43.412;24.612;2022-09-14T06:25:28;13.93;;;6.40;;
11671;SDS011;5892;43.412;24.612;2022-09-14T06:27:55;10.93;;;6.30;;
11671;SDS011;5892;43.412;24.612;2022-09-14T06:30:23;15.27;;;7.63;;
11671;SDS011;5892;43.412;24.612;2022-09-14T06:32:54;9.47;;;7.90;;
11671;SDS011;5892;43.412;24.612;2022-09-14T06:35:22;16.67;;;8.03;;
11671;SDS011;5892;43.412;24.612;2022-09-14T06:37:51;12.63;;;7.50;;
11671;SDS011;5892;43.412;24.612;2022-09-14T06:40:20;20.93;;;8.60;;
11671;SDS011;5892;43.412;24.612;2022-09-14T06:42:48;23.90;;;8.17;;
11671;SDS011;5892;43.412;24.612;2022-09-14T06:45:15;13.77;;;6.80;;
11671;SDS011;5892;43.412;24.612;2022-09-14T06:47:42;12.90;;;6.13;;
11671;SDS011;5892;43.412;24.612;2022-09-14T06:50:12;12.70;;;5.50;;
11671;SDS011;5892;43.412;24.612;2022-09-14T06:52:41;10.23;;;5.30;;
11671;SDS011;5892;43.412;24.612;2022-09-14T06:55:08;12.70;;;4.97;;
11671;SDS011;5892;43.412;24.612;2022-09-14T06:57:35;15.27;;;4.60;;
11671;SDS011;5892;43.412;24.612;2022-09-14T07:00:03;10.33;;;4.50;;
11671;SDS011;5892;43.412;24.612;2022-09-14T07:02:32;8.93;;;4.40;;
11671;SDS011;5892;43.412;24.612;2022-09-14T07:05:19;9.83;;;4.40;;
11671;SDS011;5892;43.412;24.612;2022-09-14T07:07:49;11.47;;;3.73;;
11671;SDS011;5892;43.412;24.612;2022-09-14T07:10:19;6.07;;;3.20;;
11671;SDS011;5892;43.412;24.612;2022-09-14T07:12:52;4.07;;;2.30;;
11671;SDS011;5892;43.412;24.612;2022-09-14T07:15:23;2.10;;;1.60;;
11671;SDS011;5892;43.412;24.612;2022-09-14T07:17:50;3.30;;;1.80;;
11671;SDS011;5892;43.412;24.612;2022-09-14T07:20:21;3.90;;;1.80;;
11671;SDS011;5892;43.412;24.612;2022-09-14T07:22:50;4.43;;;1.80;;
11671;SDS011;5892;43.412;24.612;2022-09-14T07:25:23;4.37;;;1.60;;
11671;SDS011;5892;43.412;24.612;2022-09-14T07:27:58;4.00;;;1.67;;
11671;SDS011;5892;43.412;24.612;2022-09-14T07:30:26;2.67;;;1.60;;
11671;SDS011;5892;43.412;24.612;2022-09-14T07:32:54;3.57;;;1.67;;
11671;SDS011;5892;43.412;24.612;2022-09-14T07:35:34;3.70;;;1.90;;
11671;SDS011;5892;43.412;24.612;2022-09-14T07:38:06;7.00;;;1.80;;
11671;SDS011;5892;43.412;24.612;2022-09-14T07:40:44;2.73;;;1.50;;
11671;SDS011;5892;43.412;24.612;2022-09-14T07:43:16;4.10;;;1.57;;
11671;SDS011;5892;43.412;24.612;2022-09-14T07:45:46;2.47;;;1.50;;
11671;SDS011;5892;43.412;24.612;2022-09-14T07:48:15;3.80;;;1.50;;
11671;SDS011;5892;43.412;24.612;2022-09-14T07:51:01;1.67;;;1.40;;
11671;SDS011;5892;43.412;24.612;2022-09-14T07:53:30;3.00;;;1.30;;
11671;SDS011;5892;43.412;24.612;2022-09-14T07:55:58;1.97;;;1.40;;
11671;SDS011;5892;43.412;24.612;2022-09-14T07:58:26;5.47;;;1.60;;
11671;SDS011;5892;43.412;24.612;2022-09-14T08:01:00;4.23;;;1.40;;
11671;SDS011;5892;43.412;24.612;2022-09-14T08:03:28;1.70;;;1.20;;
11671;SDS011;5892;43.412;24.612;2022-09-14T08:05:59;4.03;;;1.40;;
11671;SDS011;5892;43.412;24.612;2022-09-14T08:08:50;2.67;;;1.60;;
11671;SDS011;5892;43.412;24.612;2022-09-14T08:11:19;3.70;;;1.60;;
11671;SDS011;5892;43.412;24.612;2022-09-14T08:13:50;3.33;;;1.37;;
11671;SDS011;5892;43.412;24.612;2022-09-14T08:16:20;9.47;;;1.93;;
11671;SDS011;5892;43.412;24.612;2022-09-14T08:18:51;1.73;;;1.30;;
11671;SDS011;5892;43.412;24.612;2022-09-14T08:21:23;2.37;;;1.50;;
11671;SDS011;5892;43.412;24.612;2022-09-14T08:23:51;6.33;;;1.67;;
11671;SDS011;5892;43.412;24.612;2022-09-14T08:26:19;4.50;;;1.60;;
11671;SDS011;5892;43.412;24.612;2022-09-14T08:28:48;3.70;;;1.50;;
11671;SDS011;5892;43.412;24.612;2022-09-14T08:31:20;3.23;;;1.40;;
11671;SDS011;5892;43.412;24.612;2022-09-14T08:33:49;4.13;;;1.50;;
11671;SDS011;5892;43.412;24.612;2022-09-14T08:36:26;1.60;;;1.30;;
11671;SDS011;5892;43.412;24.612;2022-09-14T08:38:55;7.30;;;1.50;;
11671;SDS011;5892;43.412;24.612;2022-09-14T08:41:25;3.30;;;1.60;;
11671;SDS011;5892;43.412;24.612;2022-09-14T08:43:58;2.27;;;1.33;;
11671;SDS011;5892;43.412;24.612;2022-09-14T08:46:29;1.73;;;1.43;;
11671;SDS011;5892;43.412;24.612;2022-09-14T08:49:00;2.47;;;1.60;;
11671;SDS011;5892;43.412;24.612;2022-09-14T08:51:31;2.40;;;1.30;;
11671;SDS011;5892;43.412;24.612;2022-09-14T08:54:00;15.00;;;1.90;;
11671;SDS011;5892;43.412;24.612;2022-09-14T08:56:30;5.87;;;1.40;;
11671;SDS011;5892;43.412;24.612;2022-09-14T08:59:03;4.40;;;1.50;;
11671;SDS011;5892;43.412;24.612;2022-09-14T09:01:46;2.60;;;1.40;;
11671;SDS011;5892;43.412;24.612;2022-09-14T09:04:43;1.80;;;1.40;;
11671;SDS011;5892;43.412;24.612;2022-09-14T09:07:23;4.37;;;1.70;;
11671;SDS011;5892;43.412;24.612;2022-09-14T09:09:59;2.70;;;1.30;;
11671;SDS011;5892;43.412;24.612;2022-09-14T09:12:33;3.93;;;1.60;;
11671;SDS011;5892;43.412;24.612;2022-09-14T09:15:04;3.33;;;1.40;;
11671;SDS011;5892;43.412;24.612;2022-09-14T09:17:42;8.50;;;1.90;;
11671;SDS011;5892;43.412;24.612;2022-09-14T09:20:13;1.30;;;1.17;;
11671;SDS011;5892;43.412;24.612;2022-09-14T09:22:46;1.63;;;1.53;;
11671;SDS011;5892;43.412;24.612;2022-09-14T09:25:19;2.10;;;1.40;;
11671;SDS011;5892;43.412;24.612;2022-09-14T09:27:55;1.77;;;1.50;;
11671;SDS011;5892;43.412;24.612;2022-09-14T09:30:28;6.53;;;1.50;;
11671;SDS011;5892;43.412;24.612;2022-09-14T09:32:56;1.77;;;1.40;;
11671;SDS011;5892;43.412;24.612;2022-09-14T09:35:23;4.77;;;1.67;;
11671;SDS011;5892;43.412;24.612;2022-09-14T09:37:54;6.17;;;1.57;;
11671;SDS011;5892;43.412;24.612;2022-09-14T09:40:27;1.53;;;1.43;;
11671;SDS011;5892;43.412;24.612;2022-09-14T09:43:06;2.73;;;1.53;;
11671;SDS011;5892;43.412;24.612;2022-09-14T09:48:23;7.23;;;1.50;;
11671;SDS011;5892;43.412;24.612;2022-09-14T09:53:49;2.30;;;1.50;;
11671;SDS011;5892;43.412;24.612;2022-09-14T09:56:25;2.43;;;1.60;;
11671;SDS011;5892;43.412;24.612;2022-09-14T09:58:55;1.40;;;1.30;;
11671;SDS011;5892;43.412;24.612;2022-09-14T10:01:32;1.97;;;1.80;;
11671;SDS011;5892;43.412;24.612;2022-09-14T10:04:03;2.27;;;1.30;;
11671;SDS011;5892;43.412;24.612;2022-09-14T10:06:44;5.00;;;1.60;;
11671;SDS011;5892;43.412;24.612;2022-09-14T10:09:33;1.93;;;1.30;;
11671;SDS011;5892;43.412;24.612;2022-09-14T10:12:08;3.27;;;1.57;;
11671;SDS011;5892;43.412;24.612;2022-09-14T10:14:45;1.40;;;1.30;;
11671;SDS011;5892;43.412;24.612;2022-09-14T10:17:15;1.53;;;1.43;;
11671;SDS011;5892;43.412;24.612;2022-09-14T10:19:46;5.07;;;1.70;;
11671;SDS011;5892;43.412;24.612;2022-09-14T10:22:17;3.20;;;1.50;;
11671;SDS011;5892;43.412;24.612;2022-09-14T10:24:57;3.90;;;1.70;;
11671;SDS011;5892;43.412;24.612;2022-09-14T10:27:34;3.77;;;1.60;;
11671;SDS011;5892;43.412;24.612;2022-09-14T10:30:05;1.97;;;1.60;;
11671;SDS011;5892;43.412;24.612;2022-09-14T10:32:37;3.63;;;1.80;;
11671;SDS011;5892;43.412;24.612;2022-09-14T10:35:10;5.43;;;1.83;;
11671;SDS011;5892;43.412;24.612;2022-09-14T10:40:34;4.03;;;1.90;;
11671;SDS011;5892;43.412;24.612;2022-09-14T10:43:12;5.13;;;1.57;;
11671;SDS011;5892;43.412;24.612;2022-09-14T10:45:45;2.20;;;1.67;;
11671;SDS011;5892;43.412;24.612;2022-09-14T10:48:25;2.03;;;1.80;;
11671;SDS011;5892;43.412;24.612;2022-09-14T10:51:24;5.17;;;1.60;;
11671;SDS011;5892;43.412;24.612;2022-09-14T10:54:00;1.73;;;1.50;;
11671;SDS011;5892;43.412;24.612;2022-09-14T10:56:42;4.23;;;1.60;;
11671;SDS011;5892;43.412;24.612;2022-09-14T10:59:39;1.70;;;1.37;;
11671;SDS011;5892;43.412;24.612;2022-09-14T11:05:26;2.53;;;1.30;;
11671;SDS011;5892;43.412;24.612;2022-09-14T11:08:01;2.80;;;1.40;;
11671;SDS011;5892;43.412;24.612;2022-09-14T11:10:39;3.73;;;1.60;;
11671;SDS011;5892;43.412;24.612;2022-09-14T11:16:19;1.50;;;1.40;;
11671;SDS011;5892;43.412;24.612;2022-09-14T11:19:14;5.77;;;1.50;;
11671;SDS011;5892;43.412;24.612;2022-09-14T11:21:56;2.00;;;1.30;;
11671;SDS011;5892;43.412;24.612;2022-09-14T11:24:32;1.40;;;1.30;;
11671;SDS011;5892;43.412;24.612;2022-09-14T11:27:05;2.70;;;1.50;;
11671;SDS011;5892;43.412;24.612;2022-09-14T11:29:48;2.27;;;1.30;;
11671;SDS011;5892;43.412;24.612;2022-09-14T11:32:20;3.77;;;1.40;;
11671;SDS011;5892;43.412;24.612;2022-09-14T11:34:57;2.83;;;1.60;;
11671;SDS011;5892;43.412;24.612;2022-09-14T11:37:34;3.67;;;1.40;;
11671;SDS011;5892;43.412;24.612;2022-09-14T11:40:06;1.50;;;1.40;;
11671;SDS011;5892;43.412;24.612;2022-09-14T11:42:44;2.20;;;1.40;;
11671;SDS011;5892;43.412;24.612;2022-09-14T11:45:21;3.63;;;1.60;;
11671;SDS011;5892;43.412;24.612;2022-09-14T11:47:53;5.00;;;1.50;;
11671;SDS011;5892;43.412;24.612;2022-09-14T11:50:29;5.00;;;1.27;;
11671;SDS011;5892;43.412;24.612;2022-09-14T11:53:08;5.67;;;1.60;;
11671;SDS011;5892;43.412;24.612;2022-09-14T11:55:39;5.63;;;1.50;;
11671;SDS011;5892;43.412;24.612;2022-09-14T11:58:16;3.07;;;1.63;;
11671;SDS011;5892;43.412;24.612;2022-09-14T12:04:10;3.60;;;1.50;;
11671;SDS011;5892;43.412;24.612;2022-09-14T12:06:51;2.23;;;1.30;;
11671;SDS011;5892;43.412;24.612;2022-09-14T12:12:29;4.83;;;1.50;;
11671;SDS011;5892;43.412;24.612;2022-09-14T12:15:02;1.43;;;1.30;;
11671;SDS011;5892;43.412;24.612;2022-09-14T12:17:46;4.63;;;1.70;;
11671;SDS011;5892;43.412;24.612;2022-09-14T12:20:24;1.43;;;1.33;;
11671;SDS011;5892;43.412;24.612;2022-09-14T12:23:11;1.87;;;1.30;;
11671;SDS011;5892;43.412;24.612;2022-09-14T12:25:56;3.87;;;1.50;;
11671;SDS011;5892;43.412;24.612;2022-09-14T12:28:27;2.87;;;1.70;;
11671;SDS011;5892;43.412;24.612;2022-09-14T12:31:05;5.73;;;1.43;;
11671;SDS011;5892;43.412;24.612;2022-09-14T12:33:47;3.60;;;1.50;;
11671;SDS011;5892;43.412;24.612;2022-09-14T12:37:01;2.87;;;1.33;;
11671;SDS011;5892;43.412;24.612;2022-09-14T12:40:21;4.60;;;1.60;;
11671;SDS011;5892;43.412;24.612;2022-09-14T12:49:10;3.30;;;1.67;;
11671;SDS011;5892;43.412;24.612;2022-09-14T12:51:50;2.60;;;1.70;;
11671;SDS011;5892;43.412;24.612;2022-09-14T12:54:22;2.40;;;1.70;;
11671;SDS011;5892;43.412;24.612;2022-09-14T12:57:00;3.30;;;1.90;;
11671;SDS011;5892;43.412;24.612;2022-09-14T12:59:51;3.10;;;1.77;;
11671;SDS011;5892;43.412;24.612;2022-09-14T13:05:22;1.70;;;1.60;;
11671;SDS011;5892;43.412;24.612;2022-09-14T13:07:52;2.07;;;1.70;;
11671;SDS011;5892;43.412;24.612;2022-09-14T13:10:23;3.13;;;1.90;;
11671;SDS011;5892;43.412;24.612;2022-09-14T13:12:53;7.33;;;2.10;;
11671;SDS011;5892;43.412;24.612;2022-09-14T13:15:25;3.50;;;1.90;;
11671;SDS011;5892;43.412;24.612;2022-09-14T13:17:57;3.93;;;1.73;;
11671;SDS011;5892;43.412;24.612;2022-09-14T13:20:30;4.33;;;2.13;;
11671;SDS011;5892;43.412;24.612;2022-09-14T13:23:00;2.50;;;2.10;;
11671;SDS011;5892;43.412;24.612;2022-09-14T13:25:30;3.97;;;1.77;;
11671;SDS011;5892;43.412;24.612;2022-09-14T13:28:00;6.27;;;1.53;;
11671;SDS011;5892;43.412;24.612;2022-09-14T13:30:30;3.50;;;1.70;;
11671;SDS011;5892;43.412;24.612;2022-09-14T13:32:59;2.00;;;1.70;;
11671;SDS011;5892;43.412;24.612;2022-09-14T13:35:32;2.37;;;1.30;;
11671;SDS011;5892;43.412;24.612;2022-09-14T13:38:06;3.20;;;1.70;;
11671;SDS011;5892;43.412;24.612;2022-09-14T13:40:36;3.00;;;1.40;;
11671;SDS011;5892;43.412;24.612;2022-09-14T13:43:03;2.70;;;1.60;;
11671;SDS011;5892;43.412;24.612;2022-09-14T13:45:31;2.70;;;1.30;;
11671;SDS011;5892;43.412;24.612;2022-09-14T13:47:59;3.53;;;1.27;;
11671;SDS011;5892;43.412;24.612;2022-09-14T13:50:33;3.50;;;1.40;;
11671;SDS011;5892;43.412;24.612;2022-09-14T13:53:00;2.40;;;1.33;;
11671;SDS011;5892;43.412;24.612;2022-09-14T13:55:39;2.63;;;1.33;;
11671;SDS011;5892;43.412;24.612;2022-09-14T13:58:13;3.80;;;1.30;;
11671;SDS011;5892;43.412;24.612;2022-09-14T14:00:54;3.40;;;1.30;;
11671;SDS011;5892;43.412;24.612;2022-09-14T14:03:28;6.60;;;1.60;;
11671;SDS011;5892;43.412;24.612;2022-09-14T14:06:01;4.07;;;1.40;;
11671;SDS011;5892;43.412;24.612;2022-09-14T14:08:50;3.13;;;2.27;;
11671;SDS011;5892;43.412;24.612;2022-09-14T14:11:27;2.10;;;1.60;;
11671;SDS011;5892;43.412;24.612;2022-09-14T14:19:48;5.13;;;1.63;;
11671;SDS011;5892;43.412;24.612;2022-09-14T14:22:23;3.43;;;1.30;;
11671;SDS011;5892;43.412;24.612;2022-09-14T14:24:53;3.77;;;1.20;;
11671;SDS011;5892;43.412;24.612;2022-09-14T14:27:26;5.47;;;1.60;;
11671;SDS011;5892;43.412;24.612;2022-09-14T14:29:59;4.57;;;1.53;;
11671;SDS011;5892;43.412;24.612;2022-09-14T14:32:29;1.97;;;1.40;;
11671;SDS011;5892;43.412;24.612;2022-09-14T14:35:02;4.23;;;1.40;;
11671;SDS011;5892;43.412;24.612;2022-09-14T14:37:37;2.70;;;1.20;;
11671;SDS011;5892;43.412;24.612;2022-09-14T14:40:10;3.37;;;1.30;;
11671;SDS011;5892;43.412;24.612;2022-09-14T14:42:38;2.77;;;1.30;;
11671;SDS011;5892;43.412;24.612;2022-09-14T14:45:08;4.53;;;1.47;;
11671;SDS011;5892;43.412;24.612;2022-09-14T14:47:39;2.30;;;1.40;;
11671;SDS011;5892;43.412;24.612;2022-09-14T14:50:11;4.27;;;1.23;;
11671;SDS011;5892;43.412;24.612;2022-09-14T14:52:42;5.40;;;1.67;;
11671;SDS011;5892;43.412;24.612;2022-09-14T14:55:13;4.30;;;1.37;;
11671;SDS011;5892;43.412;24.612;2022-09-14T14:57:44;3.77;;;1.57;;
11671;SDS011;5892;43.412;24.612;2022-09-14T15:00:14;6.53;;;1.60;;
11671;SDS011;5892;43.412;24.612;2022-09-14T15:02:43;6.43;;;1.50;;
11671;SDS011;5892;43.412;24.612;2022-09-14T15:05:13;5.93;;;1.97;;
11671;SDS011;5892;43.412;24.612;2022-09-14T15:07:46;6.53;;;1.40;;
11671;SDS011;5892;43.412;24.612;2022-09-14T15:10:18;1.67;;;1.30;;
11671;SDS011;5892;43.412;24.612;2022-09-14T15:12:46;3.83;;;1.27;;
11671;SDS011;5892;43.412;24.612;2022-09-14T15:15:15;4.30;;;1.47;;
11671;SDS011;5892;43.412;24.612;2022-09-14T15:17:50;2.83;;;1.17;;
11671;SDS011;5892;43.412;24.612;2022-09-14T15:20:20;2.03;;;1.20;;
11671;SDS011;5892;43.412;24.612;2022-09-14T15:22:51;2.60;;;1.33;;
11671;SDS011;5892;43.412;24.612;2022-09-14T15:25:21;2.03;;;1.40;;
11671;SDS011;5892;43.412;24.612;2022-09-14T15:28:05;4.40;;;1.50;;
11671;SDS011;5892;43.412;24.612;2022-09-14T15:30:33;2.77;;;1.40;;
11671;SDS011;5892;43.412;24.612;2022-09-14T15:33:00;2.97;;;1.47;;
11671;SDS011;5892;43.412;24.612;2022-09-14T15:35:34;2.33;;;1.40;;
11671;SDS011;5892;43.412;24.612;2022-09-14T15:38:06;3.90;;;1.70;;
11671;SDS011;5892;43.412;24.612;2022-09-14T15:40:34;6.20;;;1.60;;
11671;SDS011;5892;43.412;24.612;2022-09-14T15:43:05;4.57;;;1.57;;
11671;SDS011;5892;43.412;24.612;2022-09-14T15:45:39;5.50;;;1.90;;
11671;SDS011;5892;43.412;24.612;2022-09-14T15:48:07;4.17;;;1.70;;
11671;SDS011;5892;43.412;24.612;2022-09-14T15:50:40;2.87;;;1.60;;
11671;SDS011;5892;43.412;24.612;2022-09-14T15:53:12;3.43;;;1.50;;
11671;SDS011;5892;43.412;24.612;2022-09-14T15:55:41;6.40;;;1.60;;
11671;SDS011;5892;43.412;24.612;2022-09-14T15:58:14;4.77;;;1.70;;
11671;SDS011;5892;43.412;24.612;2022-09-14T16:00:41;13.87;;;1.87;;
11671;SDS011;5892;43.412;24.612;2022-09-14T16:03:09;6.03;;;1.70;;